Time;durP1;ratioP1;P1;durP2;ratioP2;P2;SDS_P1;SDS_P2;PMS_P1;PMS_P2;Temp;Humidity;BMP_temperature;BMP_pressure;BME280_temperature;BME280_humidity;BME280_pressure;Samples;Min_cycle;Max_cycle;Signal;HPM_P1;HPM_P2
2024/02/06 00:01:31;;;;;;;1.00;0.20;;;;;;;1.81;100.00;98935.46;87260;264;136128;-75
2024/02/06 00:03:33;;;;;;;3.80;0.60;;;;;;;1.79;100.00;98936.55;87190;268;25099;-73
2024/02/06 00:05:35;;;;;;;1.80;0.70;;;;;;;1.77;100.00;98943.88;87163;273;135998;-76
2024/02/06 00:07:37;;;;;;;1.30;0.20;;;;;;;1.75;100.00;98944.04;87395;265;26467;-73
2024/02/06 00:09:39;;;;;;;2.30;0.50;;;;;;;1.70;100.00;98946.84;86953;271;135851;-74
2024/02/06 00:11:41;;;;;;;2.20;0.60;;;;;;;1.65;100.00;98953.94;87101;269;22557;-73
2024/02/06 00:13:43;;;;;;;2.40;0.40;;;;;;;1.61;100.00;98952.45;87251;276;137698;-74
2024/02/06 00:15:46;;;;;;;2.00;0.50;;;;;;;1.60;100.00;98955.02;87204;269;24105;-73
2024/02/06 00:17:49;;;;;;;3.70;0.90;;;;;;;1.60;100.00;98949.08;87189;264;135945;-74
2024/02/06 00:19:50;;;;;;;2.30;1.00;;;;;;;1.59;100.00;98952.82;87325;268;22648;-74
2024/02/06 00:21:53;;;;;;;1.70;0.40;;;;;;;1.58;100.00;98949.77;87203;272;136147;-74
2024/02/06 00:23:55;;;;;;;1.80;0.40;;;;;;;1.59;100.00;98946.88;87266;268;22568;-74
2024/02/06 00:25:56;;;;;;;1.70;0.40;;;;;;;1.61;100.00;98945.81;87178;268;136236;-74
2024/02/06 00:27:59;;;;;;;1.30;0.30;;;;;;;1.62;100.00;98947.05;87168;277;22673;-74
2024/02/06 00:30:01;;;;;;;1.80;0.20;;;;;;;1.66;100.00;98940.90;87088;270;136351;-74
2024/02/06 00:32:04;;;;;;;3.40;0.20;;;;;;;1.66;100.00;98937.39;87096;273;136170;-73
2024/02/06 00:34:06;;;;;;;2.10;0.40;;;;;;;1.63;100.00;98933.08;87271;268;23164;-74
2024/02/06 00:36:08;;;;;;;4.10;0.60;;;;;;;1.62;100.00;98932.85;87190;268;136723;-75
2024/02/06 00:38:12;;;;;;;4.10;0.70;;;;;;;1.64;100.00;98932.35;87222;268;25108;-76
2024/02/06 00:40:14;;;;;;;3.20;0.90;;;;;;;1.65;100.00;98941.35;87146;264;137288;-75
2024/02/06 00:42:17;;;;;;;1.90;1.40;;;;;;;1.63;100.00;98941.16;87325;263;24017;-73
2024/02/06 00:44:19;;;;;;;3.40;0.90;;;;;;;1.59;100.00;98944.20;87098;264;135949;-76
2024/02/06 00:46:21;;;;;;;6.80;1.50;;;;;;;1.55;100.00;98943.49;87230;272;22556;-75
2024/02/06 00:48:23;;;;;;;2.80;1.20;;;;;;;1.51;100.00;98944.39;87130;275;136038;-74
2024/02/06 00:50:25;;;;;;;1.90;0.90;;;;;;;1.50;100.00;98943.75;87143;266;23732;-73
2024/02/06 00:52:27;;;;;;;1.00;0.80;;;;;;;1.51;100.00;98943.20;87015;266;136289;-75
2024/02/06 00:54:29;;;;;;;3.00;0.40;;;;;;;1.51;100.00;98938.08;87216;273;25126;-75
2024/02/06 00:56:30;;;;;;;3.20;0.50;;;;;;;1.53;100.00;98933.19;87010;269;136810;-75
2024/02/06 00:58:33;;;;;;;3.80;0.70;;;;;;;1.55;100.00;98935.15;87263;267;23638;-76
2024/02/06 01:00:35;;;;;;;4.80;1.80;;;;;;;1.61;100.00;98938.94;87301;271;136207;-74
2024/02/06 01:02:38;;;;;;;1.50;0.30;;;;;;;1.65;100.00;98939.35;87800;264;22564;-77
2024/02/06 01:04:39;;;;;;;4.20;0.40;;;;;;;1.66;100.00;98932.10;87041;268;135991;-72
2024/02/06 01:06:41;;;;;;;3.00;1.10;;;;;;;1.68;100.00;98929.23;87217;262;22552;-73
2024/02/06 01:08:43;;;;;;;2.90;1.40;;;;;;;1.67;100.00;98926.05;87117;265;135829;-74
2024/02/06 01:10:45;;;;;;;3.70;0.80;;;;;;;1.66;100.00;98930.43;87304;268;22534;-75
2024/02/06 01:12:47;;;;;;;2.60;0.60;;;;;;;1.62;100.00;98928.84;87096;273;135209;-74
2024/02/06 01:14:49;;;;;;;5.70;0.80;;;;;;;1.58;100.00;98928.55;87705;271;26331;-74
2024/02/06 01:16:50;;;;;;;5.90;1.40;;;;;;;1.60;100.00;98920.70;87113;271;136697;-73
2024/02/06 01:18:52;;;;;;;3.40;0.60;;;;;;;1.64;100.00;98918.67;87240;264;22628;-75
2024/02/06 01:20:54;;;;;;;5.60;1.10;;;;;;;1.67;100.00;98922.73;87100;273;136488;-75
2024/02/06 01:22:58;;;;;;;2.90;1.20;;;;;;;1.67;100.00;98926.34;87232;267;22712;-75
2024/02/06 01:25:00;;;;;;;3.50;0.80;;;;;;;1.68;100.00;98924.41;87136;272;136648;-75
2024/02/06 01:27:03;;;;;;;3.60;0.90;;;;;;;1.69;100.00;98930.42;87254;269;22586;-72
2024/02/06 01:29:05;;;;;;;6.60;0.70;;;;;;;1.66;100.00;98934.52;87193;267;138525;-73
2024/02/06 01:31:07;;;;;;;4.10;1.00;;;;;;;1.60;100.00;98930.00;87231;272;23642;-74
2024/02/06 01:33:09;;;;;;;3.10;1.00;;;;;;;1.51;100.00;98922.13;87390;266;136575;-73
2024/02/06 01:35:12;;;;;;;6.30;1.90;;;;;;;1.44;100.00;98916.95;87248;268;25210;-73
2024/02/06 01:37:14;;;;;;;3.90;0.80;;;;;;;1.42;100.00;98919.98;87121;269;135860;-72
2024/02/06 01:39:17;;;;;;;2.50;0.50;;;;;;;1.43;100.00;98922.71;87270;264;22565;-73
2024/02/06 01:41:19;;;;;;;3.90;0.80;;;;;;;1.45;100.00;98927.04;87025;268;136726;-72
2024/02/06 01:43:20;;;;;;;1.70;0.60;;;;;;;1.50;100.00;98928.56;87200;268;24081;-72
2024/02/06 01:45:23;;;;;;;2.10;0.50;;;;;;;1.55;100.00;98929.29;87061;264;136709;-73
2024/02/06 01:47:27;;;;;;;4.50;0.60;;;;;;;1.59;100.00;98928.68;87209;273;23921;-73
2024/02/06 01:49:30;;;;;;;3.10;0.50;;;;;;;1.61;100.00;98932.90;89135;268;653032;-73
2024/02/06 01:51:36;;;;;;;3.80;1.10;;;;;;;1.62;100.00;98933.77;87372;272;25105;-74
2024/02/06 01:53:38;;;;;;;3.00;0.50;;;;;;;1.63;100.00;98932.91;87182;275;137527;-75
2024/02/06 01:55:41;;;;;;;3.20;1.10;;;;;;;1.64;100.00;98932.66;87269;272;26667;-74
2024/02/06 01:57:43;;;;;;;6.20;1.10;;;;;;;1.63;100.00;98934.32;87410;268;136430;-74
2024/02/06 01:59:47;;;;;;;2.30;0.60;;;;;;;1.61;100.00;98929.47;87275;268;22565;-74
2024/02/06 02:01:49;;;;;;;2.90;0.70;;;;;;;1.61;100.00;98930.91;87323;273;135957;-73
2024/02/06 02:03:53;;;;;;;2.60;0.40;;;;;;;1.61;100.00;98938.05;87247;268;23478;-73
2024/02/06 02:05:55;;;;;;;4.50;0.90;;;;;;;1.62;100.00;98937.50;87557;268;136629;-73
2024/02/06 02:07:58;;;;;;;3.00;1.10;;;;;;;1.65;100.00;98941.82;87272;260;25183;-75
2024/02/06 02:10:04;;;;;;;3.70;1.30;;;;;;;1.73;100.00;98942.40;87167;268;137250;-75
2024/02/06 02:12:06;;;;;;;2.20;1.20;;;;;;;1.79;100.00;98943.64;87254;268;136857;-74
2024/02/06 02:14:07;;;;;;;5.00;2.80;;;;;;;1.83;100.00;98943.40;87232;268;24280;-75
2024/02/06 02:16:10;;;;;;;4.80;1.80;;;;;;;1.84;100.00;98939.63;87215;273;136356;-75
2024/02/06 02:18:12;;;;;;;3.70;2.30;;;;;;;1.82;100.00;98946.20;87218;273;25208;-74
2024/02/06 02:20:14;;;;;;;6.20;2.70;;;;;;;1.81;100.00;98951.59;87074;268;136139;-74
2024/02/06 02:22:16;;;;;;;7.00;2.90;;;;;;;1.81;100.00;98948.54;87310;268;25076;-74
2024/02/06 02:24:19;;;;;;;6.90;3.40;;;;;;;1.80;100.00;98951.70;87060;268;135822;-77
2024/02/06 02:26:21;;;;;;;5.10;2.40;;;;;;;1.81;100.00;98955.39;87298;268;24046;-73
2024/02/06 02:28:24;;;;;;;13.10;3.90;;;;;;;1.81;100.00;98958.71;87071;268;136076;-74
2024/02/06 02:30:26;;;;;;;5.10;3.20;;;;;;;1.81;100.00;98955.23;87287;278;25079;-73
2024/02/06 02:32:30;;;;;;;3.60;2.90;;;;;;;1.79;100.00;98959.25;87240;268;136305;-72
2024/02/06 02:34:31;;;;;;;6.50;3.30;;;;;;;1.79;100.00;98961.61;87238;269;23632;-74
2024/02/06 02:36:34;;;;;;;6.60;4.30;;;;;;;1.84;100.00;98959.42;87167;273;136580;-74
2024/02/06 02:38:37;;;;;;;8.20;3.50;;;;;;;1.88;100.00;98962.34;87310;270;22568;-74
2024/02/06 02:40:39;;;;;;;8.50;5.30;;;;;;;1.90;100.00;98962.68;87177;272;137525;-74
2024/02/06 02:42:41;;;;;;;5.10;4.60;;;;;;;1.86;100.00;98964.10;87276;271;22581;-75
2024/02/06 02:44:43;;;;;;;6.70;3.90;;;;;;;1.82;100.00;98966.17;87226;271;136099;-74
2024/02/06 02:46:44;;;;;;;5.80;4.20;;;;;;;1.80;100.00;98969.36;87323;267;22568;-73
2024/02/06 02:48:46;;;;;;;5.00;3.70;;;;;;;1.79;100.00;98970.27;87195;259;135969;-73
2024/02/06 02:50:48;;;;;;;5.10;2.90;;;;;;;1.78;100.00;98968.70;87369;267;22844;-72
2024/02/06 02:52:50;;;;;;;4.80;2.30;;;;;;;1.74;100.00;98971.19;87257;267;135866;-73
2024/02/06 02:54:52;;;;;;;7.30;3.00;;;;;;;1.69;100.00;98967.02;87303;272;24140;-74
2024/02/06 02:56:56;;;;;;;5.10;2.30;;;;;;;1.67;100.00;98966.50;87064;269;136389;-73
2024/02/06 02:58:58;;;;;;;4.20;1.90;;;;;;;1.71;100.00;98969.59;87385;271;22533;-75
2024/02/06 03:01:01;;;;;;;5.70;2.90;;;;;;;1.79;100.00;98969.74;87242;275;136548;-73
2024/02/06 03:03:03;;;;;;;6.70;2.40;;;;;;;1.84;100.00;98970.50;87224;268;23746;-73
2024/02/06 03:05:06;;;;;;;5.70;2.40;;;;;;;1.89;100.00;98969.41;87156;273;136300;-73
2024/02/06 03:07:07;;;;;;;7.40;3.30;;;;;;;1.89;100.00;98969.38;87476;268;24042;-74
2024/02/06 03:09:10;;;;;;;7.90;3.60;;;;;;;1.86;100.00;98969.70;87122;273;135865;-75
2024/02/06 03:11:12;;;;;;;5.70;2.50;;;;;;;1.87;100.00;98967.36;87394;273;22535;-73
2024/02/06 03:13:16;;;;;;;15.10;4.20;;;;;;;1.89;100.00;98958.94;87321;275;136125;-75
2024/02/06 03:15:18;;;;;;;6.00;3.10;;;;;;;1.88;100.00;98960.02;87475;273;25108;-76
2024/02/06 03:17:20;;;;;;;8.90;3.50;;;;;;;1.88;100.00;98965.30;87146;269;136671;-74
2024/02/06 03:19:22;;;;;;;8.20;4.30;;;;;;;1.87;100.00;98962.62;87376;273;25190;-74
2024/02/06 03:21:24;;;;;;;7.40;3.80;;;;;;;1.86;100.00;98962.02;87264;273;135986;-73
2024/02/06 03:23:26;;;;;;;5.10;3.30;;;;;;;1.86;100.00;98965.54;87335;266;22575;-74
2024/02/06 03:25:28;;;;;;;6.90;3.40;;;;;;;1.87;100.00;98964.52;87376;268;136066;-75
2024/02/06 03:27:30;;;;;;;7.10;4.20;;;;;;;1.87;100.00;98961.73;87469;276;22573;-74
2024/02/06 03:29:32;;;;;;;4.70;3.30;;;;;;;1.86;100.00;98958.34;87443;271;136295;-73
2024/02/06 03:31:33;;;;;;;8.20;3.10;;;;;;;1.89;100.00;98960.77;87442;269;22568;-75
2024/02/06 03:33:35;;;;;;;5.40;3.10;;;;;;;1.96;100.00;98959.23;87346;268;136697;-73
2024/02/06 03:35:38;;;;;;;5.50;2.70;;;;;;;2.01;100.00;98958.10;88456;273;22701;-74
2024/02/06 03:37:40;;;;;;;8.70;3.90;;;;;;;2.07;100.00;98956.90;87903;267;135920;-73
2024/02/06 03:39:42;;;;;;;5.30;3.20;;;;;;;2.11;100.00;98954.92;87826;268;22798;-71
2024/02/06 03:41:44;;;;;;;5.10;3.20;;;;;;;2.12;100.00;98955.19;87718;268;137129;-72
2024/02/06 03:43:46;;;;;;;7.80;4.20;;;;;;;2.11;100.00;98957.52;87762;269;22512;-73
2024/02/06 03:45:47;;;;;;;7.00;3.40;;;;;;;2.11;100.00;98957.22;87873;264;137405;-73
2024/02/06 03:47:49;;;;;;;6.80;3.90;;;;;;;2.11;100.00;98961.06;87918;266;22603;-72
2024/02/06 03:49:52;;;;;;;7.30;4.30;;;;;;;2.09;100.00;98958.97;87751;264;135792;-71
2024/02/06 03:51:54;;;;;;;9.10;4.30;;;;;;;2.08;100.00;98952.60;87411;268;25143;-72
2024/02/06 03:53:56;;;;;;;4.30;2.40;;;;;;;2.09;100.00;98958.09;87105;270;136440;-73
2024/02/06 03:55:57;;;;;;;6.80;3.30;;;;;;;2.09;100.00;98957.37;87273;264;22588;-72
2024/02/06 03:57:59;;;;;;;8.00;3.40;;;;;;;2.07;100.00;98959.01;87144;267;135649;-72
2024/02/06 04:00:01;;;;;;;6.20;3.20;;;;;;;2.05;100.00;98957.48;87136;273;22847;-73
2024/02/06 04:02:05;;;;;;;5.30;3.00;;;;;;;2.04;100.00;98956.73;87245;269;26225;-74
2024/02/06 04:04:07;;;;;;;6.00;2.40;;;;;;;2.04;100.00;98960.23;87208;268;136199;-76
2024/02/06 04:06:13;;;;;;;6.50;2.20;;;;;;;2.04;100.00;98962.89;87177;268;25083;-73
2024/02/06 04:08:14;;;;;;;11.50;2.20;;;;;;;2.05;100.00;98968.52;87053;268;136729;-72
2024/02/06 04:10:16;;;;;;;3.50;1.80;;;;;;;2.10;100.00;98965.31;87240;268;22574;-73
2024/02/06 04:12:18;;;;;;;9.10;3.10;;;;;;;2.10;100.00;98960.61;87277;276;136546;-77
2024/02/06 04:14:20;;;;;;;3.10;1.20;;;;;;;2.03;100.00;98960.68;87177;268;25201;-74
2024/02/06 04:16:22;;;;;;;3.30;1.50;;;;;;;1.98;100.00;98958.66;87148;268;136296;-76
2024/02/06 04:18:24;;;;;;;3.00;1.80;;;;;;;1.94;100.00;98960.31;87317;268;25133;-76
2024/02/06 04:20:26;;;;;;;6.50;2.60;;;;;;;1.90;100.00;98962.38;87160;269;135555;-73
2024/02/06 04:22:28;;;;;;;7.10;1.60;;;;;;;1.87;100.00;98959.39;87315;275;22590;-74
2024/02/06 04:24:30;;;;;;;6.90;1.60;;;;;;;1.87;100.00;98955.78;87134;272;135979;-74
2024/02/06 04:26:32;;;;;;;4.20;1.50;;;;;;;1.86;100.00;98961.38;87248;274;25076;-74
2024/02/06 04:28:33;;;;;;;3.30;1.20;;;;;;;1.84;100.00;98960.69;87117;268;136033;-73
2024/02/06 04:30:35;;;;;;;3.60;1.30;;;;;;;1.84;100.00;98965.09;87263;267;22560;-71
2024/02/06 04:32:37;;;;;;;6.40;1.60;;;;;;;1.83;100.00;98959.00;87155;268;136097;-72
2024/02/06 04:34:40;;;;;;;4.80;0.90;;;;;;;1.89;100.00;98961.45;87318;268;24167;-72
2024/02/06 04:36:42;;;;;;;3.20;0.70;;;;;;;1.99;100.00;98957.77;87196;264;136793;-74
2024/02/06 04:38:44;;;;;;;3.00;1.50;;;;;;;2.06;100.00;98959.67;87170;266;25210;-73
2024/02/06 04:40:46;;;;;;;4.20;1.20;;;;;;;2.09;100.00;98959.01;87176;272;136318;-73
2024/02/06 04:42:48;;;;;;;6.50;2.70;;;;;;;2.05;100.00;98954.17;87194;273;24513;-74
2024/02/06 04:44:49;;;;;;;8.80;3.60;;;;;;;1.99;100.00;98956.27;87116;268;135779;-74
2024/02/06 04:46:53;;;;;;;7.80;4.30;;;;;;;1.94;100.00;98962.73;87184;268;22666;-75
2024/02/06 04:48:55;;;;;;;8.20;3.60;;;;;;;1.91;100.00;98966.69;87166;269;135968;-74
2024/02/06 04:50:57;;;;;;;10.50;3.60;;;;;;;1.88;100.00;98969.98;87442;267;25130;-72
2024/02/06 04:53:03;;;;;;;7.60;3.80;;;;;;;1.84;100.00;98975.70;87194;269;136759;-72
2024/02/06 04:55:05;;;;;;;11.40;3.90;;;;;;;1.81;100.00;98975.33;87320;271;22844;-74
2024/02/06 04:57:07;;;;;;;6.30;2.80;;;;;;;1.78;100.00;98978.28;87200;268;136034;-74
2024/02/06 04:59:09;;;;;;;8.00;2.90;;;;;;;1.78;100.00;98977.99;87174;266;24257;-72
2024/02/06 05:01:11;;;;;;;4.60;2.30;;;;;;;1.84;100.00;98975.14;87161;276;136410;-73
2024/02/06 05:03:12;;;;;;;4.80;2.00;;;;;;;1.92;100.00;98974.63;87217;267;25104;-72
2024/02/06 05:05:15;;;;;;;8.30;3.40;;;;;;;1.98;100.00;98972.33;87223;272;136378;-75
2024/02/06 05:07:19;;;;;;;6.10;3.60;;;;;;;1.97;100.00;98970.69;87307;273;25332;-74
2024/02/06 05:09:21;;;;;;;4.70;1.50;;;;;;;1.94;100.00;98973.70;87160;273;137231;-73
2024/02/06 05:11:23;;;;;;;7.20;2.60;;;;;;;1.91;100.00;98974.04;87345;266;22569;-73
2024/02/06 05:13:25;;;;;;;7.70;2.90;;;;;;;1.88;100.00;98972.17;87128;267;137483;-75
2024/02/06 05:15:27;;;;;;;6.30;2.30;;;;;;;1.85;100.00;98977.23;87164;273;24027;-75
2024/02/06 05:17:29;;;;;;;2.40;2.00;;;;;;;1.82;100.00;98985.05;87141;268;136161;-76
2024/02/06 05:19:31;;;;;;;7.00;2.70;;;;;;;1.80;100.00;98987.19;87510;273;22581;-76
2024/02/06 05:21:33;;;;;;;6.60;1.90;;;;;;;1.78;100.00;98985.10;87158;268;136040;-75
2024/02/06 05:23:35;;;;;;;6.00;1.70;;;;;;;1.78;100.00;98984.46;87259;272;22572;-75
2024/02/06 05:25:38;;;;;;;6.20;1.10;;;;;;;1.84;100.00;98984.86;87188;276;136964;-75
2024/02/06 05:27:40;;;;;;;8.30;2.10;;;;;;;1.92;100.00;98978.38;87655;268;26191;-75
2024/02/06 05:29:42;;;;;;;5.90;1.40;;;;;;;1.97;100.00;98974.80;87189;271;136215;-75
2024/02/06 05:31:45;;;;;;;4.80;1.60;;;;;;;1.96;100.00;98975.13;87311;268;25121;-74
2024/02/06 05:33:47;;;;;;;5.20;1.80;;;;;;;1.93;100.00;98970.73;87208;268;135858;-73
2024/02/06 05:35:49;;;;;;;6.50;1.20;;;;;;;1.93;100.00;98970.89;87325;273;25181;-76
2024/02/06 05:37:51;;;;;;;6.60;1.20;;;;;;;1.96;100.00;98967.27;87257;268;135924;-75
2024/02/06 05:39:53;;;;;;;6.60;1.90;;;;;;;1.96;100.00;98965.79;87229;268;24014;-74
2024/02/06 05:41:55;;;;;;;6.80;2.10;;;;;;;1.94;100.00;98971.51;87221;268;135819;-73
2024/02/06 05:43:57;;;;;;;6.40;2.70;;;;;;;1.92;100.00;98971.38;87658;264;25146;-76
2024/02/06 05:45:58;;;;;;;6.30;2.10;;;;;;;1.89;100.00;98967.14;87110;269;135322;-75
2024/02/06 05:48:00;;;;;;;6.40;1.20;;;;;;;1.87;100.00;98968.49;87181;273;25108;-75
2024/02/06 05:51:34;;;;;;;4.70;2.00;;;;;;;1.85;100.00;98965.46;85015;297;602777;-74
2024/02/06 05:53:35;;;;;;;4.70;1.80;;;;;;;1.87;100.00;98968.16;86037;288;137059;-75
2024/02/06 05:55:37;;;;;;;5.30;2.00;;;;;;;1.90;100.00;98969.24;86180;291;26178;-76
2024/02/06 05:57:40;;;;;;;7.00;2.30;;;;;;;1.90;100.00;98962.64;86154;290;135099;-74
2024/02/06 05:59:42;;;;;;;6.80;1.50;;;;;;;1.87;100.00;98962.98;86312;286;25321;-73
2024/02/06 06:01:44;;;;;;;5.30;1.80;;;;;;;1.84;100.00;98962.23;86130;291;136287;-74
2024/02/06 06:03:48;;;;;;;8.10;3.10;;;;;;;1.84;100.00;98963.27;86130;291;22593;-74
2024/02/06 06:05:50;;;;;;;8.90;3.70;;;;;;;1.85;100.00;98965.98;85463;291;744727;-74
2024/02/06 06:07:52;;;;;;;8.10;2.90;;;;;;;1.86;100.00;98965.86;86291;287;22569;-73
2024/02/06 06:09:54;;;;;;;4.00;2.30;;;;;;;1.87;100.00;98965.05;86124;289;135310;-73
2024/02/06 06:11:56;;;;;;;4.50;1.50;;;;;;;1.92;100.00;98966.75;86803;284;24068;-76
2024/02/06 06:13:58;;;;;;;3.60;1.90;;;;;;;2.02;100.00;98969.59;86765;275;136217;-73
2024/02/06 06:16:00;;;;;;;6.60;2.00;;;;;;;2.09;100.00;98966.53;86868;271;25092;-72
2024/02/06 06:18:03;;;;;;;8.00;2.50;;;;;;;2.16;100.00;98963.98;86821;282;135850;-77
2024/02/06 06:20:06;;;;;;;5.90;1.90;;;;;;;2.20;100.00;98965.39;86796;278;136877;-74
2024/02/06 06:22:08;;;;;;;7.80;2.20;;;;;;;2.17;100.00;98966.21;87068;274;22535;-75
2024/02/06 06:24:10;;;;;;;2.50;1.10;;;;;;;2.16;100.00;98970.03;86860;267;136516;-77
2024/02/06 06:26:12;;;;;;;4.60;1.90;;;;;;;2.15;100.00;98972.92;87163;282;22567;-74
2024/02/06 06:28:14;;;;;;;4.30;1.50;;;;;;;2.13;100.00;98980.08;86948;282;135970;-72
2024/02/06 06:30:15;;;;;;;4.10;1.30;;;;;;;2.09;100.00;98983.48;86861;270;25115;-74
2024/02/06 06:32:18;;;;;;;8.80;2.70;;;;;;;2.06;100.00;98984.90;86809;278;135845;-74
2024/02/06 06:34:19;;;;;;;4.00;1.30;;;;;;;2.05;100.00;98989.39;86947;274;25933;-77
2024/02/06 06:36:21;;;;;;;8.70;3.10;;;;;;;2.12;100.00;98988.08;86671;280;136230;-77
2024/02/06 06:38:23;;;;;;;5.70;1.60;;;;;;;2.24;100.00;98982.79;86891;275;26179;-78
2024/02/06 06:40:26;;;;;;;6.70;1.80;;;;;;;2.31;100.00;98988.27;86788;282;136463;-77
2024/02/06 06:42:29;;;;;;;5.90;1.70;;;;;;;2.31;100.00;98988.07;87164;275;24446;-76
2024/02/06 06:44:31;;;;;;;6.10;2.20;;;;;;;2.28;100.00;98987.06;86972;283;135714;-75
2024/02/06 06:46:35;;;;;;;8.00;2.70;;;;;;;2.26;100.00;98993.11;87364;279;22559;-75
2024/02/06 06:48:37;;;;;;;9.10;1.90;;;;;;;2.24;100.00;98986.11;87266;278;135546;-77
2024/02/06 06:50:39;;;;;;;4.90;1.70;;;;;;;2.24;100.00;98988.35;87421;274;26311;-79
2024/02/06 06:52:42;;;;;;;5.90;1.90;;;;;;;2.24;100.00;98983.52;87271;269;135508;-76
2024/02/06 06:54:44;;;;;;;6.80;2.40;;;;;;;2.23;100.00;98989.21;87461;279;23018;-72
2024/02/06 06:56:46;;;;;;;7.00;3.00;;;;;;;2.28;100.00;98987.78;87226;272;136037;-73
2024/02/06 06:58:48;;;;;;;7.10;3.20;;;;;;;2.36;100.00;98986.71;87701;268;25761;-73
2024/02/06 07:00:51;;;;;;;10.20;3.50;;;;;;;2.44;100.00;98993.52;87824;276;135844;-75
2024/02/06 07:02:52;;;;;;;10.30;4.30;;;;;;;2.48;100.00;98989.92;88047;266;23692;-73
2024/02/06 07:04:55;;;;;;;9.60;5.00;;;;;;;2.48;100.00;98991.05;87697;280;135616;-73
2024/02/06 07:06:57;;;;;;;9.30;4.90;;;;;;;2.50;100.00;98990.83;87998;273;22590;-74
2024/02/06 07:09:00;;;;;;;10.50;4.60;;;;;;;2.54;100.00;98991.03;87515;269;135812;-73
2024/02/06 07:11:02;;;;;;;8.60;4.30;;;;;;;2.59;100.00;98993.02;87362;270;27397;-74
2024/02/06 07:13:04;;;;;;;8.70;3.90;;;;;;;2.63;100.00;98996.27;87357;270;135529;-75
2024/02/06 07:15:06;;;;;;;7.90;3.70;;;;;;;2.65;100.00;98992.17;88511;266;25150;-75
2024/02/06 07:17:10;;;;;;;6.60;2.90;;;;;;;2.65;100.00;98991.61;87449;268;135673;-77
2024/02/06 07:19:12;;;;;;;6.10;3.50;;;;;;;2.65;100.00;98993.20;87537;271;23622;-75
2024/02/06 07:21:14;;;;;;;11.20;2.50;;;;;;;2.66;100.00;98996.25;87337;267;135713;-74
2024/02/06 07:23:16;;;;;;;7.20;2.50;;;;;;;2.71;100.00;98999.89;87350;270;22646;-76
2024/02/06 07:25:19;;;;;;;6.10;2.70;;;;;;;2.74;100.00;98998.81;87055;279;135766;-73
2024/02/06 07:27:21;;;;;;;4.80;3.00;;;;;;;2.74;100.00;98998.20;87094;279;24061;-76
2024/02/06 07:29:23;;;;;;;5.50;2.80;;;;;;;2.71;100.00;98999.64;87166;271;135489;-77
2024/02/06 07:31:25;;;;;;;9.00;4.60;;;;;;;2.66;100.00;98997.51;87270;276;27146;-78
2024/02/06 07:33:27;;;;;;;7.70;3.80;;;;;;;2.62;100.00;98998.48;86959;281;135046;-72
2024/02/06 07:35:30;;;;;;;7.80;2.90;;;;;;;2.57;100.00;98993.23;87149;268;22662;-77
2024/02/06 07:37:32;;;;;;;9.70;3.70;;;;;;;2.55;100.00;98993.98;86953;268;135367;-78
2024/02/06 07:39:35;;;;;;;6.10;3.40;;;;;;;2.60;100.00;98989.16;87325;267;25186;-79
2024/02/06 07:41:38;;;;;;;10.10;3.10;;;;;;;2.70;100.00;98994.42;87036;279;136001;-75
2024/02/06 07:43:40;;;;;;;5.60;2.90;;;;;;;2.78;100.00;99000.31;87594;271;22562;-75
2024/02/06 07:45:42;;;;;;;5.90;3.40;;;;;;;2.85;100.00;99001.86;87297;273;136171;-76
2024/02/06 07:47:46;;;;;;;7.30;4.70;;;;;;;2.87;100.00;99002.20;87255;270;22683;-82
2024/02/06 07:49:48;;;;;;;12.30;5.70;;;;;;;2.86;100.00;99002.08;87042;276;135849;-71
2024/02/06 07:51:50;;;;;;;9.10;6.40;;;;;;;2.85;100.00;98999.36;87353;272;23735;-68
2024/02/06 07:53:54;;;;;;;13.60;6.70;;;;;;;2.81;100.00;99000.30;87100;278;135640;-68
2024/02/06 07:55:56;;;;;;;13.50;6.20;;;;;;;2.79;100.00;98998.48;87490;278;22558;-69
2024/02/06 07:57:59;;;;;;;11.00;6.70;;;;;;;2.79;100.00;98992.35;87176;269;135678;-79
2024/02/06 08:00:04;;;;;;;14.30;7.40;;;;;;;2.86;100.00;98994.14;87668;268;22684;-80
2024/02/06 08:02:11;;;;;;;14.50;7.40;;;;;;;2.98;100.00;98995.32;87733;265;25006;-72
2024/02/06 08:04:13;;;;;;;16.50;7.50;;;;;;;3.08;100.00;98995.94;87541;268;137257;-71
2024/02/06 08:06:15;;;;;;;8.00;5.90;;;;;;;3.19;100.00;98995.65;87369;272;22648;-70
2024/02/06 08:08:21;;;;;;;11.70;5.60;;;;;;;3.24;100.00;98999.93;87493;271;135404;-80
2024/02/06 08:10:25;;;;;;;10.50;6.30;;;;;;;3.28;100.00;99003.48;87518;268;25148;-76
2024/02/06 08:12:29;;;;;;;8.80;5.60;;;;;;;3.28;100.00;99008.77;87469;278;135856;-71
2024/02/06 08:14:33;;;;;;;10.10;5.40;;;;;;;3.27;100.00;99013.14;87413;276;22742;-69
2024/02/06 08:16:35;;;;;;;9.70;4.70;;;;;;;3.22;100.00;99007.91;87535;278;136624;-73
2024/02/06 08:18:37;;;;;;;7.40;4.20;;;;;;;3.15;100.00;98998.36;87622;278;25101;-70
2024/02/06 08:20:40;;;;;;;8.20;5.10;;;;;;;3.10;100.00;98998.31;87038;270;135433;-69
2024/02/06 08:22:43;;;;;;;14.20;6.40;;;;;;;3.17;100.00;98990.40;87596;274;24151;-75
2024/02/06 08:24:45;;;;;;;10.20;5.20;;;;;;;3.27;100.00;98990.42;87440;272;136156;-68
2024/02/06 08:26:48;;;;;;;9.50;4.70;;;;;;;3.33;100.00;98993.45;87672;278;25099;-75
2024/02/06 08:28:50;;;;;;;8.10;3.90;;;;;;;3.35;100.00;98998.26;87413;276;135476;-76
2024/02/06 08:30:53;;;;;;;12.40;6.10;;;;;;;3.26;100.00;99000.33;87575;275;22570;-73
2024/02/06 08:32:55;;;;;;;11.00;6.00;;;;;;;3.18;100.00;99001.87;87568;278;135563;-73
2024/02/06 08:34:56;;;;;;;10.90;5.60;;;;;;;3.14;100.00;99003.21;87650;274;24033;-78
2024/02/06 08:36:58;;;;;;;11.20;4.90;;;;;;;3.15;100.00;99002.39;87319;271;135724;-71
2024/02/06 08:39:06;;;;;;;13.30;5.20;;;;;;;3.16;100.00;99001.31;87575;271;23915;-72
2024/02/06 08:41:08;;;;;;;8.90;4.00;;;;;;;3.17;100.00;99007.58;87469;270;135201;-72
2024/02/06 08:43:11;;;;;;;9.30;4.20;;;;;;;3.21;100.00;99010.48;87292;271;23838;-70
2024/02/06 08:45:17;;;;;;;5.70;3.40;;;;;;;3.29;100.00;99009.94;87226;276;138703;-68
2024/02/06 08:47:19;;;;;;;4.70;3.00;;;;;;;3.41;100.00;99012.73;87113;280;22612;-68
2024/02/06 08:49:21;;;;;;;7.60;3.00;;;;;;;3.50;100.00;99014.38;87287;273;137001;-67
2024/02/06 08:51:23;;;;;;;5.90;2.90;;;;;;;3.54;100.00;99014.98;87293;271;25159;-73
2024/02/06 08:53:25;;;;;;;3.50;2.40;;;;;;;3.52;100.00;99008.38;87550;278;135710;-70
2024/02/06 08:55:27;;;;;;;7.40;3.10;;;;;;;3.48;100.00;99006.33;87541;269;22558;-69
2024/02/06 08:57:29;;;;;;;4.50;3.00;;;;;;;3.50;100.00;99006.11;87550;275;135375;-68
2024/02/06 08:59:31;;;;;;;7.10;2.40;;;;;;;3.51;100.00;99002.98;87554;270;22661;-69
2024/02/06 09:01:32;;;;;;;2.70;1.80;;;;;;;3.54;100.00;99006.02;87404;266;135142;-67
2024/02/06 09:03:34;;;;;;;7.70;2.90;;;;;;;3.55;100.00;99008.23;87694;270;25108;-69
2024/02/06 09:05:36;;;;;;;3.60;2.00;;;;;;;3.53;100.00;99008.23;87157;275;135868;-69
2024/02/06 09:07:38;;;;;;;3.80;2.10;;;;;;;3.54;100.00;99008.94;87051;271;22524;-67
2024/02/06 09:09:41;;;;;;;7.10;2.70;;;;;;;3.64;100.00;99011.02;87499;278;136492;-71
2024/02/06 09:11:43;;;;;;;10.40;3.50;;;;;;;3.74;100.00;99011.27;87637;278;23409;-67
2024/02/06 09:13:45;;;;;;;3.30;2.00;;;;;;;3.82;100.00;99005.77;87505;271;136360;-71
2024/02/06 09:15:47;;;;;;;4.40;2.50;;;;;;;3.82;100.00;99012.95;87511;267;22559;-71
2024/02/06 09:17:49;;;;;;;5.80;2.60;;;;;;;3.77;100.00;99010.39;87580;270;135539;-69
2024/02/06 09:19:51;;;;;;;8.90;2.40;;;;;;;3.74;100.00;99009.77;87693;269;22817;-69
2024/02/06 09:21:53;;;;;;;7.80;2.80;;;;;;;3.76;100.00;99005.33;87494;271;136462;-70
2024/02/06 09:23:55;;;;;;;5.40;3.10;;;;;;;3.79;100.00;98999.02;87679;278;22576;-69
2024/02/06 09:25:56;;;;;;;7.40;3.80;;;;;;;3.83;100.00;98996.77;87357;269;135911;-69
2024/02/06 09:27:58;;;;;;;8.50;4.00;;;;;;;3.84;100.00;98994.13;87763;270;25183;-71
2024/02/06 09:30:00;;;;;;;3.60;2.80;;;;;;;3.90;100.00;98996.25;88177;271;136287;-67
2024/02/06 09:32:03;;;;;;;6.40;3.20;;;;;;;3.95;100.00;98992.32;87358;275;136762;-68
2024/02/06 09:34:05;;;;;;;4.60;2.80;;;;;;;3.95;100.00;98993.54;87330;278;22503;-68
2024/02/06 09:36:08;;;;;;;5.80;3.60;;;;;;;3.91;100.00;98992.06;87308;268;137627;-68
2024/02/06 09:38:10;;;;;;;9.40;4.80;;;;;;;3.86;100.00;98986.86;87667;278;22698;-74
2024/02/06 09:40:12;;;;;;;4.10;3.30;;;;;;;3.74;100.00;98985.24;87436;267;135904;-67